Time;durP1;ratioP1;P1;durP2;ratioP2;P2;SDS_P1;SDS_P2;PMS_P1;PMS_P2;Temp;Humidity;BMP_temperature;BMP_pressure;BME280_temperature;BME280_humidity;BME280_pressure;Samples;Min_cycle;Max_cycle;Signal;HPM_P1;HPM_P2
2022/03/02 00:02:15;;;;;;;15.30;8.85;;;;;;;2.77;66.07;100337.81;5049612;28;20135;-37
2022/03/02 00:04:41;;;;;;;16.10;9.18;;;;;;;2.62;66.47;100337.38;5049600;28;20029;-36
2022/03/02 00:07:06;;;;;;;14.43;8.52;;;;;;;2.51;67.06;100334.88;5048920;28;20405;-37
2022/03/02 00:09:31;;;;;;;15.05;8.98;;;;;;;2.84;66.56;100335.47;5051556;28;20033;-37
2022/03/02 00:11:57;;;;;;;15.90;8.70;;;;;;;2.80;66.57;100336.69;5052436;28;20029;-36
2022/03/02 00:14:23;;;;;;;14.60;8.60;;;;;;;2.61;66.25;100333.09;5053094;28;20025;-37
2022/03/02 00:16:48;;;;;;;16.23;8.02;;;;;;;2.57;68.36;100328.25;5053094;28;20453;-37
2022/03/02 00:19:14;;;;;;;12.07;7.35;;;;;;;2.70;67.75;100329.66;5053035;28;20558;-37
2022/03/02 00:21:39;;;;;;;12.98;7.53;;;;;;;2.53;68.93;100318.03;5052911;28;20044;-36
2022/03/02 00:24:05;;;;;;;14.45;7.82;;;;;;;2.49;69.41;100318.41;5053254;28;20416;-37
2022/03/02 00:26:31;;;;;;;13.88;7.90;;;;;;;2.38;70.32;100314.16;5035240;28;20025;-37
2022/03/02 00:28:57;;;;;;;14.48;8.98;;;;;;;2.44;71.04;100321.47;5053272;28;20154;-37
2022/03/02 00:31:22;;;;;;;14.82;8.68;;;;;;;2.34;72.02;100316.22;5053222;28;20408;-36
2022/03/02 00:33:48;;;;;;;13.50;8.32;;;;;;;2.35;71.71;100314.41;5052738;28;20453;-36
2022/03/02 00:36:13;;;;;;;17.35;9.00;;;;;;;2.10;72.05;100300.00;5065874;28;20461;-36
2022/03/02 00:38:39;;;;;;;15.38;9.32;;;;;;;2.11;72.42;100304.25;5073414;28;20054;-37
2022/03/02 00:41:05;;;;;;;14.52;8.70;;;;;;;2.09;72.49;100304.41;5073562;28;20027;-37
2022/03/02 00:43:30;;;;;;;14.40;8.32;;;;;;;1.96;72.66;100306.44;5073258;28;20025;-37
2022/03/02 00:45:55;;;;;;;14.30;8.43;;;;;;;1.94;73.42;100303.97;5073327;28;20036;-37
2022/03/02 00:48:21;;;;;;;15.15;8.95;;;;;;;2.01;73.79;100299.00;5073278;28;20427;-37
2022/03/02 00:50:47;;;;;;;14.88;8.98;;;;;;;1.80;73.44;100293.81;5073309;28;20020;-37
2022/03/02 00:53:13;;;;;;;17.23;8.95;;;;;;;1.89;74.01;100293.03;5072932;28;20017;-36
2022/03/02 00:55:38;;;;;;;17.15;8.90;;;;;;;1.60;74.73;100292.94;5072659;28;20020;-36
2022/03/02 00:58:04;;;;;;;14.20;8.43;;;;;;;1.84;74.82;100292.59;5072633;28;20052;-36
2022/03/02 01:00:30;;;;;;;12.68;8.07;;;;;;;1.87;75.02;100281.84;5072683;28;20020;-37
2022/03/02 01:02:56;;;;;;;15.10;8.40;;;;;;;2.25;72.26;100288.13;5056779;28;20029;-37
2022/03/02 01:05:21;;;;;;;15.60;9.25;;;;;;;2.02;73.28;100277.03;5053173;28;20025;-37
2022/03/02 01:07:47;;;;;;;18.00;8.88;;;;;;;1.78;72.88;100281.81;5035160;28;20032;-37
2022/03/02 01:10:12;;;;;;;15.45;8.75;;;;;;;1.99;72.20;100282.53;5052910;28;20102;-37
2022/03/02 01:12:39;;;;;;;15.20;8.98;;;;;;;2.03;71.42;100281.31;5053060;28;20028;-37
2022/03/02 01:15:05;;;;;;;15.07;8.98;;;;;;;1.98;72.58;100277.44;5052895;28;20017;-37
2022/03/02 01:17:31;;;;;;;16.08;8.90;;;;;;;2.04;71.73;100282.16;5052571;28;20047;-37
2022/03/02 01:19:56;;;;;;;16.20;9.05;;;;;;;2.10;72.12;100268.47;5051715;28;20033;-37
2022/03/02 01:22:22;;;;;;;15.93;8.95;;;;;;;1.90;72.23;100268.41;5044517;28;20052;-37
2022/03/02 01:24:47;;;;;;;15.43;8.43;;;;;;;1.99;70.91;100261.53;5072524;28;20384;-37
2022/03/02 01:27:13;;;;;;;17.33;9.15;;;;;;;1.93;71.39;100257.66;5072668;28;20455;-37
2022/03/02 01:29:39;;;;;;;15.23;8.77;;;;;;;1.51;72.26;100252.56;5072594;28;20031;-37
2022/03/02 01:32:06;;;;;;;14.70;9.02;;;;;;;1.60;72.29;100255.34;5072262;28;20044;-37
2022/03/02 01:34:31;;;;;;;17.23;9.65;;;;;;;1.85;71.13;100251.44;5072571;28;20028;-37
2022/03/02 01:36:57;;;;;;;16.35;9.38;;;;;;;1.79;70.97;100250.19;5053266;28;20074;-37
2022/03/02 01:39:22;;;;;;;15.05;8.75;;;;;;;1.68;72.09;100247.66;5034286;28;20109;-37
2022/03/02 01:41:48;;;;;;;17.75;9.60;;;;;;;1.73;71.83;100242.81;5052357;28;20055;-37
2022/03/02 01:44:13;;;;;;;16.67;9.25;;;;;;;1.73;71.99;100241.06;5034407;28;20021;-37
2022/03/02 01:46:39;;;;;;;14.63;9.38;;;;;;;1.64;72.18;100246.25;5052345;28;20676;-37
2022/03/02 01:49:05;;;;;;;14.45;8.95;;;;;;;1.64;71.22;100251.50;5052429;28;20032;-36
2022/03/02 01:51:30;;;;;;;15.95;9.40;;;;;;;1.48;72.19;100246.75;5052066;28;20013;-37
2022/03/02 01:53:56;;;;;;;16.95;9.27;;;;;;;1.39;72.87;100232.66;5052006;28;20032;-37
2022/03/02 01:56:21;;;;;;;20.58;9.65;;;;;;;1.62;72.41;100237.69;5052188;28;20017;-37
2022/03/02 01:58:47;;;;;;;16.52;9.13;;;;;;;1.38;73.50;100230.16;5052172;28;20017;-37
2022/03/02 02:01:12;;;;;;;17.90;9.95;;;;;;;1.48;73.16;100228.41;5052110;28;20064;-37
2022/03/02 02:03:38;;;;;;;17.73;10.27;;;;;;;1.48;72.51;100218.72;5051816;28;20098;-37
2022/03/02 02:06:04;;;;;;;18.08;10.02;;;;;;;1.46;72.79;100225.06;5051985;28;20100;-37
2022/03/02 02:08:29;;;;;;;18.25;9.10;;;;;;;1.32;73.04;100221.03;5051748;28;20175;-37
2022/03/02 02:10:58;;;;;;;16.95;8.75;;;;;;;1.24;72.74;100212.97;5051885;28;20035;-37
2022/03/02 02:13:24;;;;;;;18.85;9.25;;;;;;;1.15;72.90;100214.59;5051433;28;20044;-37
2022/03/02 02:15:50;;;;;;;17.13;9.18;;;;;;;1.21;73.38;100208.84;5051823;28;20021;-36
2022/03/02 02:18:15;;;;;;;16.15;8.88;;;;;;;1.23;72.21;100211.31;5051627;28;20021;-37
2022/03/02 02:20:40;;;;;;;12.60;7.72;;;;;;;1.19;72.11;100204.69;5051574;28;20469;-36
2022/03/02 02:23:06;;;;;;;12.02;7.40;;;;;;;1.07;71.88;100204.78;5038457;28;20041;-36
2022/03/02 02:25:32;;;;;;;13.73;7.72;;;;;;;1.01;72.29;100207.94;5031685;28;20033;-37
2022/03/02 02:27:57;;;;;;;13.82;8.18;;;;;;;1.03;72.22;100203.38;5031386;28;20021;-37
2022/03/02 02:30:23;;;;;;;13.52;7.85;;;;;;;1.11;71.14;100205.34;5031366;28;20030;-36
2022/03/02 02:32:48;;;;;;;12.95;7.90;;;;;;;1.29;70.99;100200.31;5049253;28;20098;-37
2022/03/02 02:35:14;;;;;;;13.18;8.02;;;;;;;1.17;71.31;100208.25;5038271;28;20399;-49
2022/03/02 02:37:39;;;;;;;15.05;7.80;;;;;;;0.90;71.69;100208.00;5070569;28;20039;-50
2022/03/02 02:40:07;;;;;;;13.60;7.97;;;;;;;1.02;71.09;100208.75;5052860;28;20483;-36
2022/03/02 02:42:34;;;;;;;13.38;8.35;;;;;;;0.76;72.06;100210.00;5070646;28;20028;-36
2022/03/02 02:45:00;;;;;;;13.85;8.10;;;;;;;0.63;72.96;100183.16;5070885;28;20518;-36
2022/03/02 02:47:25;;;;;;;13.77;8.40;;;;;;;1.02;72.32;100201.72;5052863;28;20188;-36
2022/03/02 02:49:51;;;;;;;13.75;8.15;;;;;;;0.91;72.72;100202.59;5070725;28;20027;-36
2022/03/02 02:52:16;;;;;;;13.77;8.52;;;;;;;1.11;72.39;100194.88;5070701;28;20526;-37
2022/03/02 02:54:42;;;;;;;14.68;8.05;;;;;;;1.08;72.47;100197.72;5070855;28;20028;-37
2022/03/02 02:57:08;;;;;;;15.32;8.68;;;;;;;1.14;72.68;100191.97;5070733;28;20024;-36
2022/03/02 02:59:34;;;;;;;18.58;8.57;;;;;;;1.27;71.54;100192.56;5070945;28;20073;-37
2022/03/02 03:01:59;;;;;;;15.88;9.38;;;;;;;1.11;73.00;100192.25;5070944;28;20020;-36
2022/03/02 03:04:25;;;;;;;14.80;8.82;;;;;;;1.14;72.78;100194.59;5071483;28;20074;-36
2022/03/02 03:06:50;;;;;;;15.68;8.73;;;;;;;1.21;72.90;100187.84;5070938;28;20082;-38
2022/03/02 03:09:16;;;;;;;13.32;8.07;;;;;;;1.10;72.21;100188.75;5071070;28;20055;-37
2022/03/02 03:11:41;;;;;;;15.38;8.70;;;;;;;1.17;72.63;100186.47;5071010;28;20028;-37
2022/03/02 03:14:13;;;;;;;15.07;8.50;;;;;;;1.15;73.05;100183.16;5070758;28;20435;-37
2022/03/02 03:16:39;;;;;;;16.63;8.45;;;;;;;0.98;73.96;100184.59;5070860;28;20020;-38
2022/03/02 03:19:05;;;;;;;15.35;8.80;;;;;;;0.99;73.29;100183.63;5070294;28;20024;-37
2022/03/02 03:21:31;;;;;;;15.00;8.75;;;;;;;0.92;74.19;100191.19;5070733;28;20127;-36
2022/03/02 03:23:56;;;;;;;15.32;8.65;;;;;;;0.87;73.54;100182.03;5070513;28;20114;-37
2022/03/02 03:26:22;;;;;;;14.38;8.43;;;;;;;0.96;73.25;100183.88;5070460;28;20024;-37
2022/03/02 03:28:47;;;;;;;14.35;7.72;;;;;;;0.70;73.82;100186.91;5070374;28;20086;-37
2022/03/02 03:31:12;;;;;;;17.63;9.07;;;;;;;0.53;76.08;100184.88;5060899;28;20032;-37
2022/03/02 03:33:38;;;;;;;15.85;9.23;;;;;;;0.70;75.28;100188.69;5050303;28;20455;-36
2022/03/02 03:36:03;;;;;;;17.25;9.05;;;;;;;0.75;75.54;100183.91;5050814;28;20029;-36
2022/03/02 03:38:29;;;;;;;18.85;9.38;;;;;;;0.71;75.46;100195.63;5050184;28;20108;-37
2022/03/02 03:40:54;;;;;;;18.23;9.63;;;;;;;0.58;76.47;100177.47;5049808;28;20025;-38
2022/03/02 03:43:20;;;;;;;19.45;9.50;;;;;;;0.81;75.19;100186.00;5033513;28;20477;-36
2022/03/02 03:45:45;;;;;;;18.48;10.02;;;;;;;0.71;75.68;100188.59;5053557;28;20467;-37
2022/03/02 03:48:11;;;;;;;19.35;9.90;;;;;;;0.56;76.12;100193.31;5053889;28;20021;-37
2022/03/02 03:50:36;;;;;;;20.40;10.57;;;;;;;0.50;76.86;100182.53;5035861;28;20094;-37
2022/03/02 03:53:02;;;;;;;20.83;11.18;;;;;;;0.48;76.88;100177.41;5035992;28;20020;-37
2022/03/02 03:55:27;;;;;;;26.42;11.80;;;;;;;0.66;75.61;100175.03;5053772;28;20036;-36
2022/03/02 03:57:53;;;;;;;20.98;11.48;;;;;;;0.62;76.50;100173.63;5053290;28;20365;-37
2022/03/02 04:00:18;;;;;;;20.00;11.25;;;;;;;0.58;76.47;100174.84;5053553;28;20021;-36
2022/03/02 04:02:45;;;;;;;19.00;10.52;;;;;;;0.58;76.79;100175.69;5053531;28;20025;-36
2022/03/02 04:05:10;;;;;;;22.35;11.13;;;;;;;0.62;76.42;100176.25;5053704;28;20099;-36
2022/03/02 04:07:36;;;;;;;22.95;11.65;;;;;;;0.52;76.29;100170.97;5053724;28;20047;-36
2022/03/02 04:10:03;;;;;;;24.75;10.52;;;;;;;0.69;75.27;100172.16;5053371;28;20057;-38
2022/03/02 04:12:29;;;;;;;22.13;10.90;;;;;;;0.57;75.55;100175.78;5053505;28;20017;-37
2022/03/02 04:14:55;;;;;;;18.38;10.55;;;;;;;0.66;75.87;100179.44;5053693;28;20394;-37
2022/03/02 04:17:22;;;;;;;22.58;11.43;;;;;;;0.63;76.06;100177.94;5053534;28;20021;-38
2022/03/02 04:19:47;;;;;;;19.17;10.48;;;;;;;0.49;76.43;100176.44;5053142;28;20029;-37
2022/03/02 04:22:13;;;;;;;20.13;10.30;;;;;;;0.32;77.25;100177.00;5053017;28;20346;-36
2022/03/02 04:24:38;;;;;;;21.30;11.52;;;;;;;0.47;77.23;100167.88;5053486;28;20028;-36
2022/03/02 04:27:05;;;;;;;25.17;13.18;;;;;;;0.36;76.43;100168.78;5053516;28;20099;-37
2022/03/02 04:29:30;;;;;;;26.00;12.82;;;;;;;0.24;76.68;100166.34;5053697;28;20067;-37
2022/03/02 04:31:56;;;;;;;22.63;12.50;;;;;;;0.24;77.85;100167.16;5053623;28;20029;-36
2022/03/02 04:34:21;;;;;;;24.58;14.15;;;;;;;0.12;78.67;100161.16;5053841;28;20029;-36
2022/03/02 04:36:47;;;;;;;21.10;12.07;;;;;;;0.16;78.94;100153.91;5071615;28;20021;-36
2022/03/02 04:39:12;;;;;;;24.08;13.02;;;;;;;0.21;79.14;100156.13;5073465;28;20092;-36
2022/03/02 04:41:37;;;;;;;27.95;12.60;;;;;;;0.27;79.08;100159.06;5073468;28;20025;-36
2022/03/02 04:44:03;;;;;;;88.78;39.08;;;;;;;0.13;79.57;100151.50;5072421;28;20016;-37
2022/03/02 04:46:29;;;;;;;62.17;29.80;;;;;;;0.16;78.70;100157.34;5071970;28;20615;-36
2022/03/02 04:48:54;;;;;;;71.22;32.05;;;;;;;0.21;79.27;100149.13;5071451;28;20029;-37
2022/03/02 04:51:19;;;;;;;32.00;16.25;;;;;;;0.16;79.18;100157.34;5071990;28;20074;-36
2022/03/02 04:53:45;;;;;;;29.50;14.25;;;;;;;0.23;78.79;100154.19;5071729;28;20020;-36
2022/03/02 04:56:10;;;;;;;28.58;14.63;;;;;;;0.20;78.83;100152.69;5071721;28;20380;-37
2022/03/02 04:58:36;;;;;;;30.58;15.20;;;;;;;-0.02;79.24;100150.97;5071775;28;20033;-36
2022/03/02 05:01:01;;;;;;;29.85;14.77;;;;;;;0.07;79.53;100154.66;5072644;28;20017;-37
2022/03/02 05:03:27;;;;;;;27.98;14.77;;;;;;;0.16;80.26;100156.50;5073077;28;20113;-37
2022/03/02 05:05:52;;;;;;;29.83;16.23;;;;;;;0.28;80.14;100150.25;5072509;28;20098;-37
2022/03/02 05:08:18;;;;;;;33.38;16.00;;;;;;;0.25;79.53;100152.28;5072949;28;20023;-36
2022/03/02 05:10:43;;;;;;;35.50;17.80;;;;;;;1.40;90.49;100160.03;5072228;28;20480;-37
2022/03/02 05:13:09;;;;;;;35.67;17.00;;;;;;;1.01;77.73;100154.66;5072510;28;20462;-37
2022/03/02 05:15:34;;;;;;;30.33;15.75;;;;;;;0.83;77.30;100152.66;5072243;28;20434;-36
2022/03/02 05:18:00;;;;;;;27.67;14.90;;;;;;;0.61;79.26;100152.81;5072080;28;20017;-36
2022/03/02 05:20:26;;;;;;;27.83;16.02;;;;;;;0.87;78.67;100161.09;5071946;28;20035;-36
2022/03/02 05:22:52;;;;;;;31.15;14.95;;;;;;;1.25;77.15;100157.78;5061476;28;20412;-36
2022/03/02 05:25:17;;;;;;;28.85;15.68;;;;;;;1.27;76.83;100161.09;5071974;28;20020;-37
2022/03/02 05:27:43;;;;;;;28.45;14.68;;;;;;;1.23;76.53;100153.66;5071832;28;20028;-37
2022/03/02 05:30:10;;;;;;;28.27;14.82;;;;;;;1.22;79.20;100149.34;5059932;28;20021;-37
2022/03/02 05:32:36;;;;;;;27.40;15.30;;;;;;;1.29;76.32;100147.84;5045134;28;20033;-37
2022/03/02 05:35:01;;;;;;;28.17;15.10;;;;;;;1.11;75.84;100153.75;5039124;28;20055;-39
2022/03/02 05:37:27;;;;;;;31.45;14.70;;;;;;;1.10;76.54;100149.44;5056632;28;20059;-37
2022/03/02 05:39:52;;;;;;;26.45;15.13;;;;;;;1.29;75.15;100147.84;5051580;28;20028;-37
2022/03/02 05:42:18;;;;;;;29.85;16.30;;;;;;;1.38;75.95;100147.06;5051901;28;20429;-37
2022/03/02 05:44:46;;;;;;;28.35;15.77;;;;;;;1.08;77.50;100124.34;5051326;28;20088;-36
2022/03/02 05:47:12;;;;;;;29.23;16.08;;;;;;;1.34;77.11;100149.13;5051131;28;20515;-37
2022/03/02 05:49:37;;;;;;;27.42;14.90;;;;;;;1.58;76.87;100158.44;5051441;28;20021;-37
2022/03/02 05:52:04;;;;;;;36.42;16.25;;;;;;;1.68;75.97;100159.28;5049951;28;20479;-37
2022/03/02 05:54:29;;;;;;;27.90;16.13;;;;;;;1.60;74.41;100161.75;5050105;28;20016;-36
2022/03/02 05:56:54;;;;;;;27.00;15.40;;;;;;;1.63;75.28;100160.66;5049265;28;20488;-37
2022/03/02 05:59:20;;;;;;;27.08;14.40;;;;;;;1.71;73.81;100164.25;5049011;28;20028;-37
2022/03/02 06:01:46;;;;;;;33.90;16.05;;;;;;;1.81;74.22;100173.91;5048639;28;20021;-37
2022/03/02 06:04:14;;;;;;;35.65;18.85;;;;;;;1.87;74.29;100168.97;5049283;28;20033;-37
2022/03/02 06:06:40;;;;;;;62.38;29.00;;;;;;;2.06;72.39;100170.78;5048580;28;20043;-37
2022/03/02 06:09:07;;;;;;;144.27;59.50;;;;;;;2.21;72.08;100176.44;5049444;28;20032;-37
2022/03/02 06:11:33;;;;;;;44.63;21.27;;;;;;;1.95;72.59;100176.16;5049540;28;20020;-36
2022/03/02 06:13:59;;;;;;;32.50;17.23;;;;;;;1.98;73.11;100178.53;5050568;28;20029;-38
2022/03/02 06:16:24;;;;;;;32.50;17.90;;;;;;;1.80;74.27;100173.09;5050645;28;20021;-37
2022/03/02 06:18:50;;;;;;;27.75;14.20;;;;;;;1.79;73.01;100176.72;5050856;28;20488;-37
2022/03/02 06:21:23;;;;;;;22.65;12.90;;;;;;;2.02;71.19;100166.78;5050397;28;20036;-37
2022/03/02 06:23:49;;;;;;;21.98;11.82;;;;;;;2.19;69.73;100174.91;5048932;28;20126;-37
2022/03/02 06:26:14;;;;;;;18.67;10.90;;;;;;;2.15;68.61;100171.72;5050371;28;20025;-37
2022/03/02 06:28:40;;;;;;;21.15;11.48;;;;;;;2.33;68.91;100171.88;5050069;28;20455;-37
2022/03/02 06:31:06;;;;;;;18.77;10.73;;;;;;;2.51;67.61;100167.56;5049651;28;20017;-37
2022/03/02 06:33:31;;;;;;;19.15;10.48;;;;;;;2.51;68.06;100166.72;5050172;28;20055;-37
2022/03/02 06:35:56;;;;;;;21.45;11.10;;;;;;;2.67;67.04;100174.88;5050133;28;20040;-37
2022/03/02 06:38:22;;;;;;;17.02;10.48;;;;;;;2.72;67.78;100171.78;5050046;28;20087;-37
2022/03/02 06:40:50;;;;;;;21.42;10.98;;;;;;;2.90;66.42;100164.84;5050301;28;20542;-37
2022/03/02 06:43:18;;;;;;;21.58;11.05;;;;;;;3.28;66.19;100163.03;5049752;28;20111;-37
2022/03/02 06:45:47;;;;;;;21.90;12.00;;;;;;;3.48;64.58;100140.09;5050205;28;20032;-38
2022/03/02 06:48:17;;;;;;;23.45;12.27;;;;;;;3.80;64.34;100167.69;5050011;28;20060;-37
2022/03/02 06:50:44;;;;;;;36.28;16.35;;;;;;;4.11;63.78;100172.59;5049889;28;20021;-37
2022/03/02 06:53:12;;;;;;;28.35;14.63;;;;;;;4.70;61.77;100162.34;5050090;28;20017;-37
2022/03/02 06:55:37;;;;;;;34.33;17.38;;;;;;;5.89;59.31;100156.22;5050028;28;20039;-38
2022/03/02 06:58:02;;;;;;;36.50;20.08;;;;;;;5.64;58.03;100147.44;5032117;28;20028;-37
2022/03/02 07:00:29;;;;;;;39.13;18.73;;;;;;;6.02;58.21;100169.81;5032172;28;20032;-37
2022/03/02 07:03:06;;;;;;;31.45;18.45;;;;;;;5.94;56.63;100172.44;5049916;28;20106;-37
2022/03/02 07:05:31;;;;;;;30.73;17.02;;;;;;;6.24;57.60;100171.00;5049823;28;20507;-37
2022/03/02 07:07:58;;;;;;;31.13;17.02;;;;;;;6.57;57.17;100168.34;5049891;28;20029;-38
2022/03/02 07:10:23;;;;;;;28.85;14.88;;;;;;;7.30;53.54;100158.56;5048972;28;20021;-38
2022/03/02 07:12:49;;;;;;;24.33;13.65;;;;;;;7.39;52.72;100157.53;5050107;28;20028;-38
2022/03/02 07:15:14;;;;;;;25.40;13.23;;;;;;;7.76;50.57;100155.19;5049740;28;20032;-38
2022/03/02 07:17:40;;;;;;;21.30;12.52;;;;;;;7.77;50.31;100157.66;5049837;28;20032;-38
2022/03/02 07:20:07;;;;;;;24.25;13.40;;;;;;;7.66;50.18;100154.59;5054099;28;20029;-37
2022/03/02 07:22:53;;;;;;;21.35;12.23;;;;;;;7.85;48.79;100154.13;5053687;28;20103;-37
2022/03/02 07:25:35;;;;;;;19.25;10.35;;;;;;;8.48;46.43;100141.56;5053503;28;20440;-37
2022/03/02 07:28:01;;;;;;;18.48;10.00;;;;;;;8.42;46.15;100142.31;5036017;28;20043;-37
2022/03/02 07:30:27;;;;;;;15.55;9.50;;;;;;;8.44;45.67;100139.47;5053507;28;20433;-37
2022/03/02 07:32:56;;;;;;;14.77;9.23;;;;;;;8.48;45.07;100132.81;5053433;28;20013;-37
2022/03/02 07:35:23;;;;;;;12.23;7.63;;;;;;;7.88;43.97;100132.59;5059377;28;20016;-38
2022/03/02 07:37:48;;;;;;;12.15;6.97;;;;;;;8.68;42.72;100125.97;5055499;28;20451;-37
2022/03/02 07:40:14;;;;;;;9.93;6.80;;;;;;;9.22;40.16;100116.91;5073631;28;20024;-37
2022/03/02 07:42:40;;;;;;;10.77;7.10;;;;;;;8.73;40.72;100118.28;5073593;28;20035;-37
2022/03/02 07:45:06;;;;;;;10.77;6.40;;;;;;;8.47;41.62;100113.38;5054612;28;20029;-37
2022/03/02 07:47:32;;;;;;;9.80;6.30;;;;;;;9.04;40.88;100111.13;5053369;28;20032;-37
2022/03/02 07:49:57;;;;;;;12.15;7.00;;;;;;;9.15;40.85;100116.78;5053058;28;20108;-37
2022/03/02 07:52:27;;;;;;;10.27;6.82;;;;;;;9.47;39.16;100109.41;5053340;28;20178;-38
2022/03/02 07:54:55;;;;;;;10.77;6.88;;;;;;;9.32;40.35;100105.97;5052988;28;20017;-37
2022/03/02 07:57:20;;;;;;;9.23;6.18;;;;;;;9.26;40.29;100104.06;5053518;28;20016;-37
2022/03/02 07:59:45;;;;;;;10.90;6.38;;;;;;;8.94;39.91;100093.66;5018707;28;20461;-36
2022/03/02 08:02:12;;;;;;;8.15;5.65;;;;;;;8.63;40.71;100082.44;5052967;28;20124;-38
2022/03/02 08:04:38;;;;;;;10.13;5.45;;;;;;;8.76;40.26;100085.25;5053145;28;20025;-38
2022/03/02 08:07:04;;;;;;;9.43;6.05;;;;;;;8.89;40.21;100092.56;5053071;28;20033;-38
2022/03/02 08:09:31;;;;;;;8.73;5.82;;;;;;;8.77;41.41;100076.28;5052578;28;20025;-38
2022/03/02 08:12:01;;;;;;;7.70;5.97;;;;;;;9.03;41.18;100085.63;5052787;28;20043;-37
2022/03/02 08:14:27;;;;;;;10.63;5.82;;;;;;;8.88;40.92;100081.13;5052385;28;20104;-37
2022/03/02 08:16:52;;;;;;;10.65;5.72;;;;;;;9.06;41.09;100075.41;5052668;28;20037;-37
2022/03/02 08:19:19;;;;;;;7.55;5.32;;;;;;;8.87;41.11;100068.03;5052904;28;20021;-37
2022/03/02 08:21:45;;;;;;;8.07;5.35;;;;;;;9.09;40.06;100047.69;5053857;28;20029;-38
2022/03/02 08:24:12;;;;;;;8.63;5.65;;;;;;;9.03;41.41;100072.34;5053182;28;20488;-38
2022/03/02 08:26:39;;;;;;;7.88;5.60;;;;;;;8.97;41.35;100057.97;5071464;28;20032;-38
2022/03/02 08:29:10;;;;;;;8.80;5.57;;;;;;;8.94;40.99;100059.16;5071295;28;20032;-38
2022/03/02 08:31:37;;;;;;;7.95;5.70;;;;;;;9.21;40.63;100048.84;5071411;28;20048;-37
2022/03/02 08:34:03;;;;;;;8.23;5.55;;;;;;;9.68;39.61;100055.47;5071505;28;20545;-38
2022/03/02 08:36:33;;;;;;;8.30;5.55;;;;;;;9.00;40.88;100041.66;5055811;28;20053;-37
2022/03/02 08:39:03;;;;;;;8.38;5.32;;;;;;;8.61;41.12;100038.31;5051166;28;20404;-37
2022/03/02 08:41:28;;;;;;;10.20;5.63;;;;;;;9.06;40.75;100042.75;5051248;28;20171;-39
2022/03/02 08:43:54;;;;;;;7.05;5.20;;;;;;;9.24;40.06;100040.50;5051218;28;20028;-37
2022/03/02 08:46:19;;;;;;;6.85;5.18;;;;;;;9.28;39.88;100044.44;5050973;28;20500;-37
2022/03/02 08:48:45;;;;;;;7.57;5.38;;;;;;;9.07;40.42;100039.91;5051231;28;20492;-37
2022/03/02 08:51:10;;;;;;;6.28;4.70;;;;;;;9.28;39.47;100028.50;5051051;28;20086;-37
2022/03/02 08:53:37;;;;;;;8.30;5.57;;;;;;;9.08;41.18;100033.59;5033120;28;20028;-37
2022/03/02 08:56:03;;;;;;;6.55;4.72;;;;;;;8.84;40.36;100029.44;5033608;28;20519;-37
2022/03/02 08:58:29;;;;;;;6.10;4.18;;;;;;;8.59;40.93;100015.63;5050926;28;20029;-37
2022/03/02 09:00:54;;;;;;;6.68;4.35;;;;;;;9.11;39.87;100019.94;5033238;28;20086;-38
2022/03/02 09:03:21;;;;;;;6.47;4.78;;;;;;;9.50;39.82;100021.38;4999913;28;20033;-37
2022/03/02 09:05:48;;;;;;;8.43;5.25;;;;;;;10.02;38.99;100014.06;5032925;28;20025;-37
2022/03/02 09:08:14;;;;;;;6.70;4.80;;;;;;;9.31;39.71;100014.88;5050544;28;20033;-38
2022/03/02 09:10:39;;;;;;;6.85;4.70;;;;;;;9.09;40.10;100011.34;5050889;28;20032;-38
2022/03/02 09:13:05;;;;;;;7.10;5.35;;;;;;;8.97;40.23;100013.66;5032577;28;20401;-37
2022/03/02 09:15:34;;;;;;;8.48;5.38;;;;;;;9.08;40.28;99998.25;5016035;28;20020;-38
2022/03/02 09:18:00;;;;;;;8.02;5.28;;;;;;;9.31;40.54;99998.94;5050520;28;20029;-37
2022/03/02 09:20:25;;;;;;;8.38;4.93;;;;;;;9.26;41.33;99997.84;5050331;28;20489;-37
2022/03/02 09:22:51;;;;;;;7.38;4.53;;;;;;;9.03;40.48;99995.34;5009534;28;1184803;-37
2022/03/02 09:25:16;;;;;;;6.95;5.10;;;;;;;8.84;41.22;99994.94;5051521;28;20496;-38
2022/03/02 09:27:42;;;;;;;4.88;4.22;;;;;;;8.69;40.54;99988.81;5033847;28;20476;-38
2022/03/02 09:30:09;;;;;;;7.75;4.78;;;;;;;8.92;39.63;99988.69;5033695;28;20382;-38
2022/03/02 09:32:34;;;;;;;6.25;4.38;;;;;;;8.39;40.70;99978.19;5051419;28;20044;-38
2022/03/02 09:35:00;;;;;;;8.90;4.60;;;;;;;8.88;40.00;99985.59;5054454;28;20395;-38
2022/03/02 09:37:27;;;;;;;6.07;3.92;;;;;;;8.25;40.68;99971.06;5052893;28;20027;-37
2022/03/02 09:39:52;;;;;;;6.75;4.13;;;;;;;8.05;41.66;99960.19;5066030;28;20112;-37
2022/03/02 09:42:40;;;;;;;7.10;4.13;;;;;;;7.57;42.67;99960.44;5049438;28;20037;-38
2022/03/02 09:45:07;;;;;;;6.97;4.35;;;;;;;7.87;42.54;99947.28;5051209;28;20021;-38
2022/03/02 09:47:42;;;;;;;6.03;4.18;;;;;;;8.18;41.17;99952.41;5051024;28;20098;-38
2022/03/02 09:50:08;;;;;;;7.70;4.10;;;;;;;8.15;41.31;99940.34;5050709;28;20043;-38
2022/03/02 09:52:34;;;;;;;7.55;4.30;;;;;;;8.70;40.37;99940.88;5016588;28;20029;-38
2022/03/02 09:54:59;;;;;;;5.55;3.88;;;;;;;8.96;39.50;99940.34;5033435;28;20082;-38
2022/03/02 09:57:25;;;;;;;6.03;3.60;;;;;;;9.19;39.81;99926.06;5050871;28;20470;-38
2022/03/02 09:59:55;;;;;;;4.22;3.78;;;;;;;9.49;39.34;99918.78;5050697;28;20024;-37
2022/03/02 10:02:41;;;;;;;5.25;3.63;;;;;;;9.75;38.25;99907.53;5050182;28;20550;-38
2022/03/02 10:05:09;;;;;;;4.65;3.67;;;;;;;10.11;38.22;99911.00;5050856;28;20048;-38
2022/03/02 10:07:40;;;;;;;6.95;4.03;;;;;;;9.99;37.95;99905.41;5050387;28;20104;-37
2022/03/02 10:10:22;;;;;;;8.38;4.10;;;;;;;9.84;39.42;99899.41;5050229;28;20121;-37
2022/03/02 10:12:48;;;;;;;6.97;4.25;;;;;;;10.27;38.43;99899.25;5050556;28;20448;-38
2022/03/02 10:15:14;;;;;;;5.82;4.50;;;;;;;10.31;38.32;99887.22;5050766;28;20532;-37
2022/03/02 10:17:42;;;;;;;5.57;4.10;;;;;;;10.05;38.79;99890.53;5050415;28;20021;-37
2022/03/02 10:20:16;;;;;;;8.00;4.70;;;;;;;9.75;39.72;99882.81;5050481;28;20054;-38
2022/03/02 10:23:00;;;;;;;5.50;3.97;;;;;;;9.73;39.60;99877.69;5059524;28;20052;-38
2022/03/02 10:26:00;;;;;;;7.30;4.32;;;;;;;9.42;40.99;99872.75;5070491;28;20031;-37
2022/03/02 10:28:47;;;;;;;7.70;4.65;;;;;;;9.23;41.46;99873.41;5043696;28;20107;-37
2022/03/02 10:31:44;;;;;;;7.47;4.00;;;;;;;8.74;41.52;99867.03;5070172;28;20032;-37
2022/03/02 10:34:29;;;;;;;5.60;4.05;;;;;;;8.95;41.24;99868.88;5069019;28;20476;-37
2022/03/02 10:37:24;;;;;;;6.68;3.95;;;;;;;8.79;42.18;99869.94;5049796;28;20036;-37
2022/03/02 10:39:56;;;;;;;7.30;4.80;;;;;;;8.65;42.08;99854.91;5042850;28;20045;-37
2022/03/02 10:42:21;;;;;;;9.30;4.53;;;;;;;8.88;42.01;99844.09;5049798;28;20457;-37
2022/03/02 10:45:02;;;;;;;6.75;4.18;;;;;;;9.18;41.12;99824.34;5049551;28;20031;-37
2022/03/02 10:47:28;;;;;;;5.70;4.00;;;;;;;9.61;40.61;99835.88;5048359;28;20552;-37
2022/03/02 10:49:54;;;;;;;5.60;3.88;;;;;;;9.36;38.85;99823.88;5048582;28;20021;-37
2022/03/02 10:52:21;;;;;;;5.00;3.58;;;;;;;9.52;38.72;99824.56;5032528;28;20021;-38
2022/03/02 10:54:46;;;;;;;5.13;3.72;;;;;;;9.41;38.77;99823.31;5049702;28;20029;-38
2022/03/02 10:57:12;;;;;;;4.53;3.50;;;;;;;9.42;38.02;99808.19;5031949;28;20056;-36
2022/03/02 10:59:38;;;;;;;7.40;3.50;;;;;;;9.08;38.68;99793.81;5049920;28;20135;-36
2022/03/02 11:02:04;;;;;;;5.43;3.65;;;;;;;9.05;38.89;99813.63;5050011;28;20103;-37
2022/03/02 11:04:30;;;;;;;4.90;3.50;;;;;;;9.53;38.14;99810.28;5049853;28;20401;-37
2022/03/02 11:06:55;;;;;;;7.00;3.80;;;;;;;9.60;37.79;99792.56;5049856;28;20021;-37
2022/03/02 11:09:20;;;;;;;4.53;3.38;;;;;;;9.30;37.75;99797.28;5048251;28;20500;-37
2022/03/02 11:11:46;;;;;;;7.47;3.80;;;;;;;9.83;37.20;99799.44;5049037;28;20032;-37
2022/03/02 11:14:12;;;;;;;5.97;3.47;;;;;;;10.02;36.68;99788.06;5049795;28;20404;-38
2022/03/02 11:16:38;;;;;;;4.80;3.33;;;;;;;9.90;37.08;99792.28;5049336;28;20078;-37
2022/03/02 11:19:13;;;;;;;6.10;3.67;;;;;;;9.78;38.23;99787.53;5049037;28;20017;-37
2022/03/02 11:21:41;;;;;;;7.85;4.22;;;;;;;9.85;38.09;99786.75;5049867;28;20503;-38
2022/03/02 11:24:07;;;;;;;5.72;3.80;;;;;;;9.45;38.93;99787.38;5049444;28;20031;-37
2022/03/02 11:26:37;;;;;;;5.50;3.88;;;;;;;9.34;39.18;99779.94;5049571;28;20025;-37